sensor_id;sensor_type;location;lat;lon;timestamp;P1;durP1;ratioP1;P2;durP2;ratioP2
44832;SDS011;30569;51.252;9.830;2023-09-07T00:01:08;9.85;;;3.88;;
44832;SDS011;30569;51.252;9.830;2023-09-07T00:03:33;6.55;;;4.00;;
44832;SDS011;30569;51.252;9.830;2023-09-07T00:05:59;6.95;;;4.30;;
44832;SDS011;30569;51.252;9.830;2023-09-07T00:08:25;10.20;;;4.00;;
44832;SDS011;30569;51.252;9.830;2023-09-07T00:10:51;8.65;;;4.00;;
44832;SDS011;30569;51.252;9.830;2023-09-07T00:13:16;7.47;;;4.60;;
44832;SDS011;30569;51.252;9.830;2023-09-07T00:15:42;6.43;;;4.13;;
44832;SDS011;30569;51.252;9.830;2023-09-07T00:18:08;7.70;;;4.38;;
44832;SDS011;30569;51.252;9.830;2023-09-07T00:20:34;7.15;;;4.40;;
44832;SDS011;30569;51.252;9.830;2023-09-07T00:23:00;6.38;;;4.25;;
44832;SDS011;30569;51.252;9.830;2023-09-07T00:25:26;7.97;;;4.43;;
44832;SDS011;30569;51.252;9.830;2023-09-07T00:27:52;5.97;;;3.95;;
44832;SDS011;30569;51.252;9.830;2023-09-07T00:30:18;7.75;;;3.50;;
44832;SDS011;30569;51.252;9.830;2023-09-07T00:32:44;7.85;;;4.07;;
44832;SDS011;30569;51.252;9.830;2023-09-07T00:35:09;5.70;;;4.03;;
44832;SDS011;30569;51.252;9.830;2023-09-07T00:37:35;8.38;;;3.95;;
44832;SDS011;30569;51.252;9.830;2023-09-07T00:40:02;6.80;;;4.68;;
44832;SDS011;30569;51.252;9.830;2023-09-07T00:42:28;8.13;;;4.20;;
44832;SDS011;30569;51.252;9.830;2023-09-07T00:44:54;6.35;;;4.10;;
44832;SDS011;30569;51.252;9.830;2023-09-07T00:47:20;9.98;;;4.03;;
44832;SDS011;30569;51.252;9.830;2023-09-07T00:49:47;7.32;;;4.43;;
44832;SDS011;30569;51.252;9.830;2023-09-07T00:52:13;6.45;;;4.10;;
44832;SDS011;30569;51.252;9.830;2023-09-07T00:54:39;8.63;;;4.13;;
44832;SDS011;30569;51.252;9.830;2023-09-07T00:57:05;8.30;;;3.97;;
44832;SDS011;30569;51.252;9.830;2023-09-07T00:59:32;6.25;;;3.75;;
44832;SDS011;30569;51.252;9.830;2023-09-07T01:01:58;9.48;;;4.03;;
44832;SDS011;30569;51.252;9.830;2023-09-07T01:04:24;12.15;;;4.40;;
44832;SDS011;30569;51.252;9.830;2023-09-07T01:06:56;6.60;;;4.40;;
44832;SDS011;30569;51.252;9.830;2023-09-07T01:09:26;7.47;;;4.20;;
44832;SDS011;30569;51.252;9.830;2023-09-07T01:11:55;6.53;;;4.10;;
44832;SDS011;30569;51.252;9.830;2023-09-07T01:14:21;10.60;;;4.10;;
44832;SDS011;30569;51.252;9.830;2023-09-07T01:16:47;10.30;;;3.90;;
44832;SDS011;30569;51.252;9.830;2023-09-07T01:19:13;6.07;;;3.80;;
44832;SDS011;30569;51.252;9.830;2023-09-07T01:21:39;8.80;;;4.32;;
44832;SDS011;30569;51.252;9.830;2023-09-07T01:24:06;6.38;;;4.18;;
44832;SDS011;30569;51.252;9.830;2023-09-07T01:26:36;6.78;;;3.70;;
44832;SDS011;30569;51.252;9.830;2023-09-07T01:29:05;6.03;;;3.88;;
44832;SDS011;30569;51.252;9.830;2023-09-07T01:31:35;6.05;;;3.95;;
44832;SDS011;30569;51.252;9.830;2023-09-07T01:34:02;8.98;;;4.70;;
44832;SDS011;30569;51.252;9.830;2023-09-07T01:36:27;9.02;;;4.03;;
44832;SDS011;30569;51.252;9.830;2023-09-07T01:38:54;7.07;;;4.05;;
44832;SDS011;30569;51.252;9.830;2023-09-07T01:41:19;6.85;;;4.30;;
44832;SDS011;30569;51.252;9.830;2023-09-07T01:43:45;9.07;;;4.38;;
44832;SDS011;30569;51.252;9.830;2023-09-07T01:46:10;7.80;;;4.00;;
44832;SDS011;30569;51.252;9.830;2023-09-07T01:48:36;8.48;;;4.13;;
44832;SDS011;30569;51.252;9.830;2023-09-07T01:51:01;14.52;;;5.03;;
44832;SDS011;30569;51.252;9.830;2023-09-07T01:53:27;6.15;;;3.83;;
44832;SDS011;30569;51.252;9.830;2023-09-07T01:55:56;7.40;;;4.20;;
44832;SDS011;30569;51.252;9.830;2023-09-07T01:58:22;6.75;;;4.15;;
44832;SDS011;30569;51.252;9.830;2023-09-07T02:00:49;8.20;;;4.43;;
44832;SDS011;30569;51.252;9.830;2023-09-07T02:03:14;7.43;;;3.60;;
44832;SDS011;30569;51.252;9.830;2023-09-07T02:05:40;6.65;;;4.00;;
44832;SDS011;30569;51.252;9.830;2023-09-07T02:08:05;11.20;;;3.70;;
44832;SDS011;30569;51.252;9.830;2023-09-07T02:10:32;7.15;;;4.00;;
44832;SDS011;30569;51.252;9.830;2023-09-07T02:12:58;6.85;;;4.20;;
44832;SDS011;30569;51.252;9.830;2023-09-07T02:15:24;7.32;;;3.65;;
44832;SDS011;30569;51.252;9.830;2023-09-07T02:17:49;7.45;;;4.22;;
44832;SDS011;30569;51.252;9.830;2023-09-07T02:20:15;13.50;;;5.55;;
44832;SDS011;30569;51.252;9.830;2023-09-07T02:22:40;7.32;;;4.20;;
44832;SDS011;30569;51.252;9.830;2023-09-07T02:25:06;7.90;;;4.28;;
44832;SDS011;30569;51.252;9.830;2023-09-07T02:27:32;8.77;;;4.00;;
44832;SDS011;30569;51.252;9.830;2023-09-07T02:29:59;6.97;;;4.00;;
44832;SDS011;30569;51.252;9.830;2023-09-07T02:32:24;7.97;;;4.57;;
44832;SDS011;30569;51.252;9.830;2023-09-07T02:34:50;7.50;;;4.60;;
44832;SDS011;30569;51.252;9.830;2023-09-07T02:37:15;8.20;;;4.05;;
44832;SDS011;30569;51.252;9.830;2023-09-07T02:39:41;8.52;;;4.55;;
44832;SDS011;30569;51.252;9.830;2023-09-07T02:42:07;9.50;;;4.53;;
44832;SDS011;30569;51.252;9.830;2023-09-07T02:44:33;7.22;;;4.22;;
44832;SDS011;30569;51.252;9.830;2023-09-07T02:46:58;7.85;;;4.00;;
44832;SDS011;30569;51.252;9.830;2023-09-07T02:49:24;9.70;;;4.30;;
44832;SDS011;30569;51.252;9.830;2023-09-07T02:51:49;9.20;;;4.65;;
44832;SDS011;30569;51.252;9.830;2023-09-07T02:54:15;8.07;;;4.40;;
44832;SDS011;30569;51.252;9.830;2023-09-07T02:56:40;7.68;;;4.80;;
44832;SDS011;30569;51.252;9.830;2023-09-07T02:59:06;8.35;;;4.70;;
44832;SDS011;30569;51.252;9.830;2023-09-07T03:01:31;7.78;;;4.78;;
44832;SDS011;30569;51.252;9.830;2023-09-07T03:03:57;10.38;;;4.88;;
44832;SDS011;30569;51.252;9.830;2023-09-07T03:06:23;8.38;;;4.82;;
44832;SDS011;30569;51.252;9.830;2023-09-07T03:08:48;8.35;;;4.40;;
44832;SDS011;30569;51.252;9.830;2023-09-07T03:11:14;7.45;;;4.65;;
44832;SDS011;30569;51.252;9.830;2023-09-07T03:13:39;7.75;;;4.38;;
44832;SDS011;30569;51.252;9.830;2023-09-07T03:16:05;7.75;;;4.82;;
44832;SDS011;30569;51.252;9.830;2023-09-07T03:18:31;10.10;;;4.72;;
44832;SDS011;30569;51.252;9.830;2023-09-07T03:20:58;11.13;;;5.00;;
44832;SDS011;30569;51.252;9.830;2023-09-07T03:23:26;11.52;;;4.78;;
44832;SDS011;30569;51.252;9.830;2023-09-07T03:25:53;6.72;;;4.10;;
44832;SDS011;30569;51.252;9.830;2023-09-07T03:28:19;7.38;;;4.63;;
44832;SDS011;30569;51.252;9.830;2023-09-07T03:30:45;7.35;;;4.60;;
44832;SDS011;30569;51.252;9.830;2023-09-07T03:33:10;9.73;;;4.45;;
44832;SDS011;30569;51.252;9.830;2023-09-07T03:35:36;7.55;;;4.82;;
44832;SDS011;30569;51.252;9.830;2023-09-07T03:38:03;10.20;;;4.95;;
44832;SDS011;30569;51.252;9.830;2023-09-07T03:40:28;9.85;;;4.80;;
44832;SDS011;30569;51.252;9.830;2023-09-07T03:42:54;11.70;;;5.10;;
44832;SDS011;30569;51.252;9.830;2023-09-07T03:45:19;7.38;;;4.88;;
44832;SDS011;30569;51.252;9.830;2023-09-07T03:47:45;14.32;;;5.57;;
44832;SDS011;30569;51.252;9.830;2023-09-07T03:50:11;8.30;;;4.93;;
44832;SDS011;30569;51.252;9.830;2023-09-07T03:52:36;7.97;;;4.88;;
44832;SDS011;30569;51.252;9.830;2023-09-07T03:55:02;8.32;;;4.82;;
44832;SDS011;30569;51.252;9.830;2023-09-07T03:57:28;7.68;;;4.82;;
44832;SDS011;30569;51.252;9.830;2023-09-07T03:59:54;9.20;;;5.13;;
44832;SDS011;30569;51.252;9.830;2023-09-07T04:02:21;7.22;;;5.05;;
44832;SDS011;30569;51.252;9.830;2023-09-07T04:04:50;7.38;;;5.05;;
44832;SDS011;30569;51.252;9.830;2023-09-07T04:07:17;7.80;;;4.72;;
44832;SDS011;30569;51.252;9.830;2023-09-07T04:09:43;11.30;;;5.43;;
44832;SDS011;30569;51.252;9.830;2023-09-07T04:12:09;8.02;;;5.13;;
44832;SDS011;30569;51.252;9.830;2023-09-07T04:14:35;8.18;;;5.15;;
44832;SDS011;30569;51.252;9.830;2023-09-07T04:17:01;8.18;;;5.05;;
44832;SDS011;30569;51.252;9.830;2023-09-07T04:19:27;7.75;;;5.00;;
44832;SDS011;30569;51.252;9.830;2023-09-07T04:21:52;11.52;;;5.75;;
44832;SDS011;30569;51.252;9.830;2023-09-07T04:24:18;9.40;;;4.97;;
44832;SDS011;30569;51.252;9.830;2023-09-07T04:26:44;11.10;;;4.70;;
44832;SDS011;30569;51.252;9.830;2023-09-07T04:29:09;8.60;;;5.03;;
44832;SDS011;30569;51.252;9.830;2023-09-07T04:31:36;8.88;;;5.57;;
44832;SDS011;30569;51.252;9.830;2023-09-07T04:34:02;7.85;;;5.10;;
44832;SDS011;30569;51.252;9.830;2023-09-07T04:36:28;6.95;;;4.65;;
44832;SDS011;30569;51.252;9.830;2023-09-07T04:38:53;7.63;;;4.78;;
44832;SDS011;30569;51.252;9.830;2023-09-07T04:41:19;7.15;;;5.03;;
44832;SDS011;30569;51.252;9.830;2023-09-07T04:43:45;7.47;;;4.95;;
44832;SDS011;30569;51.252;9.830;2023-09-07T04:46:11;11.43;;;5.43;;
44832;SDS011;30569;51.252;9.830;2023-09-07T04:48:37;7.93;;;4.95;;
44832;SDS011;30569;51.252;9.830;2023-09-07T04:51:04;13.05;;;5.28;;
44832;SDS011;30569;51.252;9.830;2023-09-07T04:53:31;8.18;;;4.78;;
44832;SDS011;30569;51.252;9.830;2023-09-07T04:55:58;8.40;;;5.07;;
44832;SDS011;30569;51.252;9.830;2023-09-07T04:58:24;7.55;;;4.90;;
44832;SDS011;30569;51.252;9.830;2023-09-07T05:00:50;9.93;;;4.68;;
44832;SDS011;30569;51.252;9.830;2023-09-07T05:03:16;9.95;;;5.10;;
44832;SDS011;30569;51.252;9.830;2023-09-07T05:05:41;8.98;;;5.28;;
44832;SDS011;30569;51.252;9.830;2023-09-07T05:08:08;9.43;;;5.13;;
44832;SDS011;30569;51.252;9.830;2023-09-07T05:10:34;10.02;;;5.13;;
44832;SDS011;30569;51.252;9.830;2023-09-07T05:13:00;8.52;;;5.30;;
44832;SDS011;30569;51.252;9.830;2023-09-07T05:15:25;8.40;;;5.45;;
44832;SDS011;30569;51.252;9.830;2023-09-07T05:17:52;8.30;;;5.03;;
44832;SDS011;30569;51.252;9.830;2023-09-07T05:20:18;8.45;;;5.53;;
44832;SDS011;30569;51.252;9.830;2023-09-07T05:22:43;7.72;;;4.95;;
44832;SDS011;30569;51.252;9.830;2023-09-07T05:25:09;7.72;;;5.18;;
44832;SDS011;30569;51.252;9.830;2023-09-07T05:27:35;7.90;;;4.82;;
44832;SDS011;30569;51.252;9.830;2023-09-07T05:30:01;7.03;;;4.78;;
44832;SDS011;30569;51.252;9.830;2023-09-07T05:32:27;7.88;;;5.15;;
44832;SDS011;30569;51.252;9.830;2023-09-07T05:34:53;8.60;;;5.55;;
44832;SDS011;30569;51.252;9.830;2023-09-07T05:37:18;10.68;;;5.18;;
44832;SDS011;30569;51.252;9.830;2023-09-07T05:39:44;8.48;;;5.38;;
44832;SDS011;30569;51.252;9.830;2023-09-07T05:42:09;10.00;;;5.15;;
44832;SDS011;30569;51.252;9.830;2023-09-07T05:44:35;13.75;;;5.78;;
44832;SDS011;30569;51.252;9.830;2023-09-07T05:47:01;6.60;;;4.75;;
44832;SDS011;30569;51.252;9.830;2023-09-07T05:49:27;11.25;;;6.10;;
44832;SDS011;30569;51.252;9.830;2023-09-07T05:51:53;7.00;;;4.93;;
44832;SDS011;30569;51.252;9.830;2023-09-07T05:54:18;7.78;;;5.63;;
44832;SDS011;30569;51.252;9.830;2023-09-07T05:56:44;14.90;;;6.18;;
44832;SDS011;30569;51.252;9.830;2023-09-07T05:59:09;7.50;;;5.35;;
44832;SDS011;30569;51.252;9.830;2023-09-07T06:01:35;10.30;;;5.47;;
44832;SDS011;30569;51.252;9.830;2023-09-07T06:04:00;9.40;;;5.65;;
44832;SDS011;30569;51.252;9.830;2023-09-07T06:06:27;9.82;;;5.25;;
44832;SDS011;30569;51.252;9.830;2023-09-07T06:08:52;10.75;;;6.30;;
44832;SDS011;30569;51.252;9.830;2023-09-07T06:11:18;8.65;;;5.60;;
44832;SDS011;30569;51.252;9.830;2023-09-07T06:13:43;14.90;;;5.97;;
44832;SDS011;30569;51.252;9.830;2023-09-07T06:16:09;20.50;;;6.80;;
44832;SDS011;30569;51.252;9.830;2023-09-07T06:18:34;18.83;;;7.75;;
44832;SDS011;30569;51.252;9.830;2023-09-07T06:21:00;24.98;;;8.80;;
44832;SDS011;30569;51.252;9.830;2023-09-07T06:23:25;17.80;;;7.57;;
44832;SDS011;30569;51.252;9.830;2023-09-07T06:25:51;12.55;;;6.82;;
44832;SDS011;30569;51.252;9.830;2023-09-07T06:28:16;12.90;;;7.93;;
44832;SDS011;30569;51.252;9.830;2023-09-07T06:30:42;11.77;;;6.97;;
44832;SDS011;30569;51.252;9.830;2023-09-07T06:33:07;12.60;;;7.60;;
44832;SDS011;30569;51.252;9.830;2023-09-07T06:35:33;14.35;;;8.77;;
44832;SDS011;30569;51.252;9.830;2023-09-07T06:37:59;12.90;;;8.82;;
44832;SDS011;30569;51.252;9.830;2023-09-07T06:40:24;14.13;;;9.40;;
44832;SDS011;30569;51.252;9.830;2023-09-07T06:42:51;13.13;;;8.50;;
44832;SDS011;30569;51.252;9.830;2023-09-07T06:45:17;14.15;;;10.20;;
44832;SDS011;30569;51.252;9.830;2023-09-07T06:47:43;12.73;;;8.25;;
44832;SDS011;30569;51.252;9.830;2023-09-07T06:50:09;14.00;;;8.88;;
44832;SDS011;30569;51.252;9.830;2023-09-07T06:52:35;13.15;;;8.02;;
44832;SDS011;30569;51.252;9.830;2023-09-07T06:55:00;15.07;;;8.20;;
44832;SDS011;30569;51.252;9.830;2023-09-07T06:57:26;12.15;;;8.38;;
44832;SDS011;30569;51.252;9.830;2023-09-07T06:59:51;11.20;;;7.70;;
44832;SDS011;30569;51.252;9.830;2023-09-07T07:02:17;9.70;;;6.90;;
44832;SDS011;30569;51.252;9.830;2023-09-07T07:04:43;12.98;;;7.38;;
44832;SDS011;30569;51.252;9.830;2023-09-07T07:07:10;12.18;;;7.15;;
44832;SDS011;30569;51.252;9.830;2023-09-07T07:09:36;10.73;;;7.45;;
44832;SDS011;30569;51.252;9.830;2023-09-07T07:12:02;11.35;;;7.45;;
44832;SDS011;30569;51.252;9.830;2023-09-07T07:14:27;14.65;;;7.07;;
44832;SDS011;30569;51.252;9.830;2023-09-07T07:16:53;11.63;;;6.57;;
44832;SDS011;30569;51.252;9.830;2023-09-07T07:19:18;11.50;;;7.07;;
44832;SDS011;30569;51.252;9.830;2023-09-07T07:21:44;9.63;;;6.97;;
44832;SDS011;30569;51.252;9.830;2023-09-07T07:24:10;9.15;;;6.78;;
44832;SDS011;30569;51.252;9.830;2023-09-07T07:26:35;9.30;;;6.78;;
44832;SDS011;30569;51.252;9.830;2023-09-07T07:29:02;11.40;;;6.15;;
44832;SDS011;30569;51.252;9.830;2023-09-07T07:31:30;6.95;;;4.68;;
44832;SDS011;30569;51.252;9.830;2023-09-07T07:33:56;7.25;;;4.53;;
44832;SDS011;30569;51.252;9.830;2023-09-07T07:36:21;6.70;;;4.25;;
44832;SDS011;30569;51.252;9.830;2023-09-07T07:38:47;6.75;;;4.57;;
44832;SDS011;30569;51.252;9.830;2023-09-07T07:41:12;7.70;;;4.35;;
44832;SDS011;30569;51.252;9.830;2023-09-07T07:43:39;8.02;;;4.00;;
44832;SDS011;30569;51.252;9.830;2023-09-07T07:46:04;8.05;;;4.10;;
44832;SDS011;30569;51.252;9.830;2023-09-07T07:48:30;8.73;;;3.45;;
44832;SDS011;30569;51.252;9.830;2023-09-07T07:50:55;6.68;;;3.67;;
44832;SDS011;30569;51.252;9.830;2023-09-07T07:53:21;6.78;;;3.78;;
44832;SDS011;30569;51.252;9.830;2023-09-07T07:55:46;6.68;;;3.67;;
44832;SDS011;30569;51.252;9.830;2023-09-07T07:58:13;5.93;;;3.28;;
44832;SDS011;30569;51.252;9.830;2023-09-07T08:00:39;18.08;;;4.38;;
44832;SDS011;30569;51.252;9.830;2023-09-07T08:03:12;6.55;;;3.40;;
44832;SDS011;30569;51.252;9.830;2023-09-07T08:05:38;5.28;;;3.38;;
44832;SDS011;30569;51.252;9.830;2023-09-07T08:08:04;8.13;;;4.03;;
44832;SDS011;30569;51.252;9.830;2023-09-07T08:10:34;8.18;;;4.03;;
44832;SDS011;30569;51.252;9.830;2023-09-07T08:13:01;6.22;;;3.22;;
44832;SDS011;30569;51.252;9.830;2023-09-07T08:15:27;5.85;;;3.30;;
44832;SDS011;30569;51.252;9.830;2023-09-07T08:17:53;7.28;;;3.33;;
44832;SDS011;30569;51.252;9.830;2023-09-07T08:20:19;6.22;;;3.85;;
44832;SDS011;30569;51.252;9.830;2023-09-07T08:22:45;5.53;;;3.22;;
44832;SDS011;30569;51.252;9.830;2023-09-07T08:25:11;6.35;;;3.42;;
44832;SDS011;30569;51.252;9.830;2023-09-07T08:27:41;8.15;;;3.22;;
44832;SDS011;30569;51.252;9.830;2023-09-07T08:30:09;5.03;;;2.85;;
44832;SDS011;30569;51.252;9.830;2023-09-07T08:32:36;7.68;;;3.60;;
44832;SDS011;30569;51.252;9.830;2023-09-07T08:35:03;5.93;;;3.30;;
44832;SDS011;30569;51.252;9.830;2023-09-07T08:37:31;6.65;;;2.72;;
44832;SDS011;30569;51.252;9.830;2023-09-07T08:39:58;5.03;;;2.53;;
44832;SDS011;30569;51.252;9.830;2023-09-07T08:42:24;6.30;;;2.80;;
44832;SDS011;30569;51.252;9.830;2023-09-07T08:44:51;5.82;;;2.72;;
44832;SDS011;30569;51.252;9.830;2023-09-07T08:47:18;4.95;;;2.70;;
44832;SDS011;30569;51.252;9.830;2023-09-07T08:49:44;5.32;;;2.63;;
44832;SDS011;30569;51.252;9.830;2023-09-07T08:52:11;5.32;;;2.90;;
44832;SDS011;30569;51.252;9.830;2023-09-07T08:54:39;6.15;;;3.00;;
44832;SDS011;30569;51.252;9.830;2023-09-07T08:57:06;6.75;;;3.00;;
44832;SDS011;30569;51.252;9.830;2023-09-07T08:59:32;5.38;;;2.70;;
44832;SDS011;30569;51.252;9.830;2023-09-07T09:01:57;6.13;;;2.95;;
44832;SDS011;30569;51.252;9.830;2023-09-07T09:04:27;6.07;;;2.88;;
44832;SDS011;30569;51.252;9.830;2023-09-07T09:06:53;5.70;;;2.60;;
44832;SDS011;30569;51.252;9.830;2023-09-07T09:09:24;5.53;;;2.72;;
44832;SDS011;30569;51.252;9.830;2023-09-07T09:11:50;6.10;;;2.80;;
44832;SDS011;30569;51.252;9.830;2023-09-07T09:14:16;6.95;;;2.83;;
44832;SDS011;30569;51.252;9.830;2023-09-07T09:16:48;6.00;;;2.67;;
44832;SDS011;30569;51.252;9.830;2023-09-07T09:19:15;5.25;;;2.63;;
44832;SDS011;30569;51.252;9.830;2023-09-07T09:21:41;5.60;;;2.67;;
44832;SDS011;30569;51.252;9.830;2023-09-07T09:24:09;4.53;;;2.40;;
44832;SDS011;30569;51.252;9.830;2023-09-07T09:26:39;6.30;;;2.80;;
44832;SDS011;30569;51.252;9.830;2023-09-07T09:29:04;5.95;;;2.85;;
44832;SDS011;30569;51.252;9.830;2023-09-07T09:31:30;5.10;;;2.58;;
44832;SDS011;30569;51.252;9.830;2023-09-07T09:33:56;6.18;;;2.58;;
44832;SDS011;30569;51.252;9.830;2023-09-07T09:36:22;6.35;;;2.85;;
44832;SDS011;30569;51.252;9.830;2023-09-07T09:38:51;5.75;;;2.47;;
44832;SDS011;30569;51.252;9.830;2023-09-07T09:41:19;4.88;;;2.70;;
44832;SDS011;30569;51.252;9.830;2023-09-07T09:43:48;5.57;;;2.42;;
44832;SDS011;30569;51.252;9.830;2023-09-07T09:46:14;4.75;;;2.65;;
44832;SDS011;30569;51.252;9.830;2023-09-07T09:48:41;5.00;;;2.50;;
44832;SDS011;30569;51.252;9.830;2023-09-07T09:51:07;5.47;;;2.90;;
44832;SDS011;30569;51.252;9.830;2023-09-07T09:53:33;5.15;;;2.50;;
44832;SDS011;30569;51.252;9.830;2023-09-07T09:55:59;4.82;;;2.60;;
44832;SDS011;30569;51.252;9.830;2023-09-07T09:58:25;4.60;;;2.38;;
44832;SDS011;30569;51.252;9.830;2023-09-07T10:00:53;5.03;;;2.42;;
44832;SDS011;30569;51.252;9.830;2023-09-07T10:06:09;6.57;;;2.17;;
44832;SDS011;30569;51.252;9.830;2023-09-07T10:08:35;7.13;;;2.65;;
44832;SDS011;30569;51.252;9.830;2023-09-07T10:11:06;5.45;;;2.47;;
44832;SDS011;30569;51.252;9.830;2023-09-07T10:13:34;4.95;;;2.63;;
44832;SDS011;30569;51.252;9.830;2023-09-07T10:16:00;4.57;;;2.40;;
44832;SDS011;30569;51.252;9.830;2023-09-07T10:20:58;4.38;;;2.50;;
44832;SDS011;30569;51.252;9.830;2023-09-07T10:23:40;5.85;;;2.70;;
44832;SDS011;30569;51.252;9.830;2023-09-07T10:26:13;7.70;;;2.83;;
44832;SDS011;30569;51.252;9.830;2023-09-07T10:28:41;4.55;;;2.65;;
44832;SDS011;30569;51.252;9.830;2023-09-07T10:31:17;4.50;;;2.65;;
44832;SDS011;30569;51.252;9.830;2023-09-07T10:33:44;5.65;;;2.60;;
44832;SDS011;30569;51.252;9.830;2023-09-07T10:36:20;6.60;;;2.80;;
44832;SDS011;30569;51.252;9.830;2023-09-07T10:38:48;5.80;;;2.70;;
44832;SDS011;30569;51.252;9.830;2023-09-07T10:41:14;5.18;;;2.50;;
44832;SDS011;30569;51.252;9.830;2023-09-07T10:43:49;5.78;;;2.88;;
44832;SDS011;30569;51.252;9.830;2023-09-07T10:46:20;5.78;;;2.60;;
44832;SDS011;30569;51.252;9.830;2023-09-07T10:48:53;6.15;;;2.50;;
44832;SDS011;30569;51.252;9.830;2023-09-07T10:51:19;6.38;;;2.55;;
44832;SDS011;30569;51.252;9.830;2023-09-07T10:53:45;4.88;;;2.58;;
44832;SDS011;30569;51.252;9.830;2023-09-07T10:56:11;6.97;;;2.58;;
44832;SDS011;30569;51.252;9.830;2023-09-07T10:58:37;6.10;;;2.67;;
44832;SDS011;30569;51.252;9.830;2023-09-07T11:01:04;6.65;;;2.80;;
44832;SDS011;30569;51.252;9.830;2023-09-07T11:03:30;5.22;;;2.85;;
44832;SDS011;30569;51.252;9.830;2023-09-07T11:06:19;7.70;;;3.20;;
44832;SDS011;30569;51.252;9.830;2023-09-07T11:08:44;5.45;;;2.83;;
44832;SDS011;30569;51.252;9.830;2023-09-07T11:11:11;7.88;;;2.90;;
44832;SDS011;30569;51.252;9.830;2023-09-07T11:13:37;4.75;;;2.53;;
44832;SDS011;30569;51.252;9.830;2023-09-07T11:16:06;6.28;;;3.40;;
44832;SDS011;30569;51.252;9.830;2023-09-07T11:18:32;4.90;;;2.75;;
44832;SDS011;30569;51.252;9.830;2023-09-07T11:21:00;5.30;;;2.88;;
44832;SDS011;30569;51.252;9.830;2023-09-07T11:23:29;7.65;;;2.72;;
44832;SDS011;30569;51.252;9.830;2023-09-07T11:25:56;4.88;;;2.65;;
44832;SDS011;30569;51.252;9.830;2023-09-07T11:28:23;4.93;;;2.80;;
44832;SDS011;30569;51.252;9.830;2023-09-07T11:30:53;7.63;;;3.20;;
44832;SDS011;30569;51.252;9.830;2023-09-07T11:33:23;4.93;;;2.78;;
44832;SDS011;30569;51.252;9.830;2023-09-07T11:35:49;5.40;;;2.85;;
44832;SDS011;30569;51.252;9.830;2023-09-07T11:38:15;5.38;;;2.90;;
44832;SDS011;30569;51.252;9.830;2023-09-07T11:40:42;5.22;;;2.72;;
44832;SDS011;30569;51.252;9.830;2023-09-07T11:43:10;9.38;;;2.97;;
44832;SDS011;30569;51.252;9.830;2023-09-07T11:45:37;6.93;;;3.00;;
44832;SDS011;30569;51.252;9.830;2023-09-07T11:48:03;5.60;;;3.53;;
44832;SDS011;30569;51.252;9.830;2023-09-07T11:50:29;5.22;;;2.40;;
44832;SDS011;30569;51.252;9.830;2023-09-07T11:52:55;5.50;;;2.80;;
44832;SDS011;30569;51.252;9.830;2023-09-07T11:55:21;4.85;;;2.72;;
44832;SDS011;30569;51.252;9.830;2023-09-07T11:57:47;8.25;;;2.80;;
44832;SDS011;30569;51.252;9.830;2023-09-07T12:00:13;5.18;;;3.00;;
44832;SDS011;30569;51.252;9.830;2023-09-07T12:02:39;6.30;;;3.10;;
44832;SDS011;30569;51.252;9.830;2023-09-07T12:05:06;5.78;;;2.80;;
44832;SDS011;30569;51.252;9.830;2023-09-07T12:07:34;7.32;;;3.17;;
44832;SDS011;30569;51.252;9.830;2023-09-07T12:10:00;5.00;;;3.00;;
44832;SDS011;30569;51.252;9.830;2023-09-07T12:12:26;5.30;;;2.90;;
44832;SDS011;30569;51.252;9.830;2023-09-07T12:14:51;5.43;;;2.63;;
44832;SDS011;30569;51.252;9.830;2023-09-07T12:17:17;5.93;;;3.10;;
44832;SDS011;30569;51.252;9.830;2023-09-07T12:19:44;5.15;;;2.88;;
44832;SDS011;30569;51.252;9.830;2023-09-07T12:22:11;5.28;;;2.58;;
44832;SDS011;30569;51.252;9.830;2023-09-07T12:24:37;5.97;;;2.90;;
44832;SDS011;30569;51.252;9.830;2023-09-07T12:27:02;5.20;;;2.70;;
44832;SDS011;30569;51.252;9.830;2023-09-07T12:29:28;4.93;;;2.75;;
44832;SDS011;30569;51.252;9.830;2023-09-07T12:31:54;7.18;;;3.00;;
44832;SDS011;30569;51.252;9.830;2023-09-07T12:34:20;6.68;;;2.80;;
44832;SDS011;30569;51.252;9.830;2023-09-07T12:36:45;5.13;;;2.67;;
44832;SDS011;30569;51.252;9.830;2023-09-07T12:39:11;7.90;;;2.88;;
44832;SDS011;30569;51.252;9.830;2023-09-07T12:41:38;6.80;;;2.67;;
44832;SDS011;30569;51.252;9.830;2023-09-07T12:44:04;4.80;;;2.80;;
44832;SDS011;30569;51.252;9.830;2023-09-07T12:46:30;5.22;;;2.75;;
44832;SDS011;30569;51.252;9.830;2023-09-07T12:48:56;6.88;;;2.65;;
44832;SDS011;30569;51.252;9.830;2023-09-07T12:51:21;8.15;;;3.05;;
44832;SDS011;30569;51.252;9.830;2023-09-07T12:53:47;4.55;;;2.95;;
44832;SDS011;30569;51.252;9.830;2023-09-07T12:56:12;5.97;;;2.95;;
44832;SDS011;30569;51.252;9.830;2023-09-07T12:58:40;6.20;;;2.95;;
44832;SDS011;30569;51.252;9.830;2023-09-07T13:01:06;5.07;;;2.63;;
44832;SDS011;30569;51.252;9.830;2023-09-07T13:03:35;5.78;;;3.13;;
44832;SDS011;30569;51.252;9.830;2023-09-07T13:06:02;10.10;;;2.97;;
44832;SDS011;30569;51.252;9.830;2023-09-07T13:08:28;5.47;;;2.60;;
44832;SDS011;30569;51.252;9.830;2023-09-07T13:10:54;6.25;;;3.67;;
44832;SDS011;30569;51.252;9.830;2023-09-07T13:13:20;7.03;;;2.80;;
44832;SDS011;30569;51.252;9.830;2023-09-07T13:15:47;7.22;;;3.45;;
44832;SDS011;30569;51.252;9.830;2023-09-07T13:18:13;5.00;;;2.47;;
44832;SDS011;30569;51.252;9.830;2023-09-07T13:20:38;4.72;;;2.55;;
44832;SDS011;30569;51.252;9.830;2023-09-07T13:23:04;5.97;;;2.65;;
44832;SDS011;30569;51.252;9.830;2023-09-07T13:25:31;7.07;;;2.70;;
44832;SDS011;30569;51.252;9.830;2023-09-07T13:27:57;5.53;;;2.72;;
44832;SDS011;30569;51.252;9.830;2023-09-07T13:30:22;6.72;;;2.70;;
44832;SDS011;30569;51.252;9.830;2023-09-07T13:32:48;6.90;;;2.95;;
44832;SDS011;30569;51.252;9.830;2023-09-07T13:35:14;9.70;;;3.00;;
44832;SDS011;30569;51.252;9.830;2023-09-07T13:37:40;6.15;;;2.80;;
44832;SDS011;30569;51.252;9.830;2023-09-07T13:40:06;6.53;;;3.00;;
44832;SDS011;30569;51.252;9.830;2023-09-07T13:42:32;6.50;;;2.90;;
44832;SDS011;30569;51.252;9.830;2023-09-07T13:44:58;7.10;;;2.33;;
44832;SDS011;30569;51.252;9.830;2023-09-07T13:47:24;6.43;;;2.70;;
44832;SDS011;30569;51.252;9.830;2023-09-07T13:49:49;6.57;;;2.78;;
44832;SDS011;30569;51.252;9.830;2023-09-07T13:52:15;6.40;;;2.67;;
44832;SDS011;30569;51.252;9.830;2023-09-07T13:54:40;8.50;;;2.67;;
44832;SDS011;30569;51.252;9.830;2023-09-07T13:57:06;8.60;;;2.60;;
44832;SDS011;30569;51.252;9.830;2023-09-07T13:59:31;10.18;;;3.35;;
44832;SDS011;30569;51.252;9.830;2023-09-07T14:01:59;7.22;;;2.70;;
44832;SDS011;30569;51.252;9.830;2023-09-07T14:04:25;6.30;;;2.80;;
44832;SDS011;30569;51.252;9.830;2023-09-07T14:06:51;8.52;;;2.47;;
44832;SDS011;30569;51.252;9.830;2023-09-07T14:09:17;6.00;;;2.70;;
44832;SDS011;30569;51.252;9.830;2023-09-07T14:11:43;6.45;;;2.92;;
44832;SDS011;30569;51.252;9.830;2023-09-07T14:14:10;7.05;;;2.95;;
44832;SDS011;30569;51.252;9.830;2023-09-07T14:16:36;8.35;;;2.70;;
44832;SDS011;30569;51.252;9.830;2023-09-07T14:19:01;6.70;;;2.80;;
44832;SDS011;30569;51.252;9.830;2023-09-07T14:21:27;7.10;;;3.47;;
44832;SDS011;30569;51.252;9.830;2023-09-07T14:23:53;7.32;;;3.03;;
44832;SDS011;30569;51.252;9.830;2023-09-07T14:26:18;11.45;;;2.88;;
44832;SDS011;30569;51.252;9.830;2023-09-07T14:28:44;8.80;;;3.30;;
44832;SDS011;30569;51.252;9.830;2023-09-07T14:31:10;7.93;;;2.88;;
44832;SDS011;30569;51.252;9.830;2023-09-07T14:33:36;7.40;;;2.90;;
44832;SDS011;30569;51.252;9.830;2023-09-07T14:36:04;5.38;;;2.97;;
44832;SDS011;30569;51.252;9.830;2023-09-07T14:38:37;9.50;;;3.13;;
44832;SDS011;30569;51.252;9.830;2023-09-07T14:41:07;9.23;;;3.42;;
44832;SDS011;30569;51.252;9.830;2023-09-07T14:43:36;8.07;;;3.30;;
44832;SDS011;30569;51.252;9.830;2023-09-07T14:46:02;8.40;;;2.92;;